Portada
METAR-TAF:

METAR-TAF

Aeroports :

Dar es Salaam, Tanzània

latitud: 06-52S, longitud: 039-12E, altitud: 55 m

Observació

L'informe es va fer fa 48 minuts, a les 16:00 UTC
Vent 7 kt del Nord-Est
Temperatura 28°C
Humitat 79%
Pressió 1010 hPa
Visibilitat 10 km o més
Escasses núvols a una alçada de 1600 ft

METAR: HTDA 181600Z 05007KT 9999 FEW016 28/24 Q1010 NOSIG

Hora: 19:48 (16:48 UTC)

Pronòstic

L'informe es va fer fa 5 hores i 48 minuts, a les 11:00 UTC
Pronòstic vàlid del 18 a les 12 UTC al 19 a les 18 UTC
Vent 10 kt del Nord-Est
Visibilitat 10 km o més
Cel ennuvolat a una alçada de 2600 ft
Evolucionant progressivament
l' 18 a les 15 UTC al 18 a les 18 UTC
Núvols disperses a una alçada de 1400 ft
Evolucionant progressivament
l' 19 a les 05 UTC al 19 a les 08 UTC
Cel ennuvolat a una alçada de 1300 ft
Escasses núvols a una alçada de 1400 ft, Cumulonimbus.

TAF: HTDA 181100Z 1812/1918 04010KT 9999 BKN026 BECMG 1815/1818 SCT014 BECMG 1905/1908 BKN013 FEW014CB

Observacions i pronòstics meteorològics de més de 4000 aeroports (METAR i TAF).

Les estacions disponibles són els punts grocs i vermells al mapa.

Posi el ratolí al punt desitjat per veure el nom de l'estació.

Feu clic per veure les observacions i els pronòstics meteorològics.

Per canviar el mapa: feu clic els botons verds amb una creu de color negre per apropar; al botó verd amb un guió per allunyar la imatge; o en les fletxes verdes per a mapes adjacents.


METAR-TAF: